sensor_id;sensor_type;location;lat;lon;timestamp;temperature;humidity
68746;SHT31;66104;45.456;11.064;2023-04-06T00:02:26;7.09;42.38
68746;SHT31;66104;45.456;11.064;2023-04-06T00:05:00;7.11;42.44
68746;SHT31;66104;45.456;11.064;2023-04-06T00:07:34;7.14;42.52
68746;SHT31;66104;45.456;11.064;2023-04-06T00:10:12;7.19;42.39
68746;SHT31;66104;45.456;11.064;2023-04-06T00:12:47;7.20;42.25
68746;SHT31;66104;45.456;11.064;2023-04-06T00:15:21;7.21;42.16
68746;SHT31;66104;45.456;11.064;2023-04-06T00:17:55;7.19;42.25
68746;SHT31;66104;45.456;11.064;2023-04-06T00:20:28;7.15;42.38
68746;SHT31;66104;45.456;11.064;2023-04-06T00:23:01;7.09;42.56
68746;SHT31;66104;45.456;11.064;2023-04-06T00:25:35;7.04;42.64
68746;SHT31;66104;45.456;11.064;2023-04-06T00:28:09;7.02;42.69
68746;SHT31;66104;45.456;11.064;2023-04-06T00:30:43;7.05;42.60
68746;SHT31;66104;45.456;11.064;2023-04-06T00:33:17;7.07;42.47
68746;SHT31;66104;45.456;11.064;2023-04-06T00:35:50;7.08;42.39
68746;SHT31;66104;45.456;11.064;2023-04-06T00:38:23;7.10;42.56
68746;SHT31;66104;45.456;11.064;2023-04-06T00:40:57;7.15;42.77
68746;SHT31;66104;45.456;11.064;2023-04-06T00:43:32;7.17;42.74
68746;SHT31;66104;45.456;11.064;2023-04-06T00:46:05;7.17;42.66
68746;SHT31;66104;45.456;11.064;2023-04-06T00:48:39;7.18;42.66
68746;SHT31;66104;45.456;11.064;2023-04-06T00:51:12;7.19;42.70
68746;SHT31;66104;45.456;11.064;2023-04-06T00:53:45;7.20;42.80
68746;SHT31;66104;45.456;11.064;2023-04-06T00:56:20;7.23;42.90
68746;SHT31;66104;45.456;11.064;2023-04-06T00:58:54;7.25;43.12
68746;SHT31;66104;45.456;11.064;2023-04-06T01:01:28;7.25;43.19
68746;SHT31;66104;45.456;11.064;2023-04-06T01:04:05;7.25;43.29
68746;SHT31;66104;45.456;11.064;2023-04-06T01:06:41;7.23;43.43
68746;SHT31;66104;45.456;11.064;2023-04-06T01:09:14;7.21;43.50
68746;SHT31;66104;45.456;11.064;2023-04-06T01:11:49;7.21;43.85
68746;SHT31;66104;45.456;11.064;2023-04-06T01:14:22;7.19;44.35
68746;SHT31;66104;45.456;11.064;2023-04-06T01:16:59;7.19;44.64
68746;SHT31;66104;45.456;11.064;2023-04-06T01:19:34;7.22;44.46
68746;SHT31;66104;45.456;11.064;2023-04-06T01:24:58;7.23;43.98
68746;SHT31;66104;45.456;11.064;2023-04-06T01:27:42;7.22;43.96
68746;SHT31;66104;45.456;11.064;2023-04-06T01:30:34;7.23;44.15
68746;SHT31;66104;45.456;11.064;2023-04-06T01:33:17;7.20;43.98
68746;SHT31;66104;45.456;11.064;2023-04-06T01:36:01;7.18;43.80
68746;SHT31;66104;45.456;11.064;2023-04-06T01:38:37;7.16;43.96
68746;SHT31;66104;45.456;11.064;2023-04-06T01:41:10;7.15;44.04
68746;SHT31;66104;45.456;11.064;2023-04-06T01:43:49;7.12;44.25
68746;SHT31;66104;45.456;11.064;2023-04-06T01:46:27;7.11;44.17
68746;SHT31;66104;45.456;11.064;2023-04-06T01:49:03;7.11;44.36
68746;SHT31;66104;45.456;11.064;2023-04-06T01:51:40;7.11;44.08
68746;SHT31;66104;45.456;11.064;2023-04-06T01:54:13;7.09;43.80
68746;SHT31;66104;45.456;11.064;2023-04-06T01:56:55;7.05;43.76
68746;SHT31;66104;45.456;11.064;2023-04-06T01:59:35;7.02;43.88
68746;SHT31;66104;45.456;11.064;2023-04-06T02:02:14;6.99;44.07
68746;SHT31;66104;45.456;11.064;2023-04-06T02:04:54;6.97;43.98
68746;SHT31;66104;45.456;11.064;2023-04-06T02:07:28;6.94;44.00
68746;SHT31;66104;45.456;11.064;2023-04-06T02:10:02;6.92;44.11
68746;SHT31;66104;45.456;11.064;2023-04-06T02:12:44;6.87;44.24
68746;SHT31;66104;45.456;11.064;2023-04-06T02:15:22;6.85;44.30
68746;SHT31;66104;45.456;11.064;2023-04-06T02:17:56;6.83;44.29
68746;SHT31;66104;45.456;11.064;2023-04-06T02:20:30;6.79;44.47
68746;SHT31;66104;45.456;11.064;2023-04-06T02:23:03;6.78;44.40
68746;SHT31;66104;45.456;11.064;2023-04-06T02:25:37;6.79;44.33
68746;SHT31;66104;45.456;11.064;2023-04-06T02:28:09;6.80;44.09
68746;SHT31;66104;45.456;11.064;2023-04-06T02:30:43;6.80;44.08
68746;SHT31;66104;45.456;11.064;2023-04-06T02:33:16;6.81;44.25
68746;SHT31;66104;45.456;11.064;2023-04-06T02:35:49;6.83;44.42
68746;SHT31;66104;45.456;11.064;2023-04-06T02:38:23;6.84;44.29
68746;SHT31;66104;45.456;11.064;2023-04-06T02:41:00;6.84;44.15
68746;SHT31;66104;45.456;11.064;2023-04-06T02:43:33;6.85;43.92
68746;SHT31;66104;45.456;11.064;2023-04-06T02:46:13;6.85;43.85
68746;SHT31;66104;45.456;11.064;2023-04-06T02:48:47;6.84;43.94
68746;SHT31;66104;45.456;11.064;2023-04-06T02:51:21;6.84;43.98
68746;SHT31;66104;45.456;11.064;2023-04-06T02:53:57;6.81;44.10
68746;SHT31;66104;45.456;11.064;2023-04-06T02:56:30;6.81;44.20
68746;SHT31;66104;45.456;11.064;2023-04-06T02:59:03;6.82;44.17
68746;SHT31;66104;45.456;11.064;2023-04-06T03:01:37;6.85;44.17
68746;SHT31;66104;45.456;11.064;2023-04-06T03:04:11;6.86;44.08
68746;SHT31;66104;45.456;11.064;2023-04-06T03:06:44;6.84;44.09
68746;SHT31;66104;45.456;11.064;2023-04-06T03:09:23;6.85;44.20
68746;SHT31;66104;45.456;11.064;2023-04-06T03:11:57;6.82;44.11
68746;SHT31;66104;45.456;11.064;2023-04-06T03:14:32;6.85;44.14
68746;SHT31;66104;45.456;11.064;2023-04-06T03:17:05;6.86;44.16
68746;SHT31;66104;45.456;11.064;2023-04-06T03:19:39;6.87;44.22
68746;SHT31;66104;45.456;11.064;2023-04-06T03:22:13;6.89;44.27
68746;SHT31;66104;45.456;11.064;2023-04-06T03:24:47;6.91;44.41
68746;SHT31;66104;45.456;11.064;2023-04-06T03:27:22;6.93;44.36
68746;SHT31;66104;45.456;11.064;2023-04-06T03:29:56;6.94;44.45
68746;SHT31;66104;45.456;11.064;2023-04-06T03:32:33;6.94;44.53
68746;SHT31;66104;45.456;11.064;2023-04-06T03:35:08;6.94;44.60
68746;SHT31;66104;45.456;11.064;2023-04-06T03:37:43;6.96;44.76
68746;SHT31;66104;45.456;11.064;2023-04-06T03:40:17;6.95;44.79
68746;SHT31;66104;45.456;11.064;2023-04-06T03:42:52;6.92;44.85
68746;SHT31;66104;45.456;11.064;2023-04-06T03:45:26;6.88;44.93
68746;SHT31;66104;45.456;11.064;2023-04-06T03:48:00;6.89;44.97
68746;SHT31;66104;45.456;11.064;2023-04-06T03:50:36;6.90;45.02
68746;SHT31;66104;45.456;11.064;2023-04-06T03:53:09;6.88;45.17
68746;SHT31;66104;45.456;11.064;2023-04-06T03:55:42;6.87;45.27
68746;SHT31;66104;45.456;11.064;2023-04-06T03:58:15;6.86;45.38
68746;SHT31;66104;45.456;11.064;2023-04-06T04:00:49;6.85;45.52
68746;SHT31;66104;45.456;11.064;2023-04-06T04:03:22;6.81;45.66
68746;SHT31;66104;45.456;11.064;2023-04-06T04:05:56;6.78;45.62
68746;SHT31;66104;45.456;11.064;2023-04-06T04:08:29;6.75;45.70
68746;SHT31;66104;45.456;11.064;2023-04-06T04:11:02;6.73;45.70
68746;SHT31;66104;45.456;11.064;2023-04-06T04:13:38;6.69;45.75
68746;SHT31;66104;45.456;11.064;2023-04-06T04:16:10;6.65;46.69
68746;SHT31;66104;45.456;11.064;2023-04-06T04:18:43;6.52;48.04
68746;SHT31;66104;45.456;11.064;2023-04-06T04:21:17;6.43;48.75
68746;SHT31;66104;45.456;11.064;2023-04-06T04:23:51;6.37;49.27
68746;SHT31;66104;45.456;11.064;2023-04-06T04:26:24;6.34;49.48
68746;SHT31;66104;45.456;11.064;2023-04-06T04:28:58;6.32;49.45
68746;SHT31;66104;45.456;11.064;2023-04-06T04:31:32;6.30;49.47
68746;SHT31;66104;45.456;11.064;2023-04-06T04:34:12;6.26;48.67
68746;SHT31;66104;45.456;11.064;2023-04-06T04:36:47;6.18;48.55
68746;SHT31;66104;45.456;11.064;2023-04-06T04:39:25;6.16;49.69
68746;SHT31;66104;45.456;11.064;2023-04-06T04:42:05;6.17;49.29
68746;SHT31;66104;45.456;11.064;2023-04-06T04:44:43;6.17;49.30
68746;SHT31;66104;45.456;11.064;2023-04-06T04:47:21;6.19;49.08
68746;SHT31;66104;45.456;11.064;2023-04-06T04:49:54;6.20;48.58
68746;SHT31;66104;45.456;11.064;2023-04-06T04:52:27;6.23;48.20
68746;SHT31;66104;45.456;11.064;2023-04-06T04:55:13;6.23;47.78
68746;SHT31;66104;45.456;11.064;2023-04-06T04:57:50;6.19;47.54
68746;SHT31;66104;45.456;11.064;2023-04-06T05:00:30;6.16;47.42
68746;SHT31;66104;45.456;11.064;2023-04-06T05:03:05;6.15;47.22
68746;SHT31;66104;45.456;11.064;2023-04-06T05:05:45;6.14;47.28
68746;SHT31;66104;45.456;11.064;2023-04-06T05:08:19;6.11;47.40
68746;SHT31;66104;45.456;11.064;2023-04-06T05:10:52;6.10;47.39
68746;SHT31;66104;45.456;11.064;2023-04-06T05:13:27;6.11;47.23
68746;SHT31;66104;45.456;11.064;2023-04-06T05:16:07;6.11;47.13
68746;SHT31;66104;45.456;11.064;2023-04-06T05:18:41;6.13;47.12
68746;SHT31;66104;45.456;11.064;2023-04-06T05:21:15;6.43;46.66
68746;SHT31;66104;45.456;11.064;2023-04-06T05:23:56;7.26;44.98
68746;SHT31;66104;45.456;11.064;2023-04-06T05:26:30;7.72;43.92
68746;SHT31;66104;45.456;11.064;2023-04-06T05:29:07;7.74;43.49
68746;SHT31;66104;45.456;11.064;2023-04-06T05:31:41;7.55;43.59
68746;SHT31;66104;45.456;11.064;2023-04-06T05:34:15;7.47;43.75
68746;SHT31;66104;45.456;11.064;2023-04-06T05:36:49;7.41;43.74
68746;SHT31;66104;45.456;11.064;2023-04-06T05:39:24;7.32;43.86
68746;SHT31;66104;45.456;11.064;2023-04-06T05:42:01;7.27;44.03
68746;SHT31;66104;45.456;11.064;2023-04-06T05:44:52;7.25;44.00
68746;SHT31;66104;45.456;11.064;2023-04-06T05:47:26;7.24;43.99
68746;SHT31;66104;45.456;11.064;2023-04-06T05:50:08;7.24;44.14
68746;SHT31;66104;45.456;11.064;2023-04-06T05:52:44;7.27;44.10
68746;SHT31;66104;45.456;11.064;2023-04-06T05:55:18;7.34;43.99
68746;SHT31;66104;45.456;11.064;2023-04-06T05:58:00;7.42;44.05
68746;SHT31;66104;45.456;11.064;2023-04-06T06:00:34;7.48;44.17
68746;SHT31;66104;45.456;11.064;2023-04-06T06:03:07;7.51;45.72
68746;SHT31;66104;45.456;11.064;2023-04-06T06:05:42;7.58;45.68
68746;SHT31;66104;45.456;11.064;2023-04-06T06:08:20;7.65;44.80
68746;SHT31;66104;45.456;11.064;2023-04-06T06:10:56;7.74;44.89
68746;SHT31;66104;45.456;11.064;2023-04-06T06:13:31;7.82;44.59
68746;SHT31;66104;45.456;11.064;2023-04-06T06:16:06;7.89;44.25
68746;SHT31;66104;45.456;11.064;2023-04-06T06:18:44;7.97;44.15
68746;SHT31;66104;45.456;11.064;2023-04-06T06:21:17;8.07;43.73
68746;SHT31;66104;45.456;11.064;2023-04-06T06:23:50;8.17;43.35
68746;SHT31;66104;45.456;11.064;2023-04-06T06:26:24;8.25;43.88
68746;SHT31;66104;45.456;11.064;2023-04-06T06:28:58;8.31;43.23
68746;SHT31;66104;45.456;11.064;2023-04-06T06:31:34;8.36;42.74
68746;SHT31;66104;45.456;11.064;2023-04-06T06:34:08;8.44;42.82
68746;SHT31;66104;45.456;11.064;2023-04-06T06:36:42;8.52;44.49
68746;SHT31;66104;45.456;11.064;2023-04-06T06:39:18;8.59;44.75
68746;SHT31;66104;45.456;11.064;2023-04-06T06:41:53;8.70;45.06
68746;SHT31;66104;45.456;11.064;2023-04-06T06:44:42;8.86;44.82
68746;SHT31;66104;45.456;11.064;2023-04-06T06:47:16;8.99;44.06
68746;SHT31;66104;45.456;11.064;2023-04-06T06:49:49;9.13;43.08
68746;SHT31;66104;45.456;11.064;2023-04-06T06:52:23;9.26;42.32
68746;SHT31;66104;45.456;11.064;2023-04-06T06:54:56;9.36;41.79
68746;SHT31;66104;45.456;11.064;2023-04-06T06:57:30;9.43;41.88
68746;SHT31;66104;45.456;11.064;2023-04-06T07:00:05;9.48;41.80
68746;SHT31;66104;45.456;11.064;2023-04-06T07:02:44;9.50;40.46
68746;SHT31;66104;45.456;11.064;2023-04-06T07:05:18;9.47;40.09
68746;SHT31;66104;45.456;11.064;2023-04-06T07:07:57;9.41;38.98
68746;SHT31;66104;45.456;11.064;2023-04-06T07:10:31;9.44;39.13
68746;SHT31;66104;45.456;11.064;2023-04-06T07:13:05;9.52;38.76
68746;SHT31;66104;45.456;11.064;2023-04-06T07:15:38;9.63;37.71
68746;SHT31;66104;45.456;11.064;2023-04-06T07:18:12;9.73;37.53
68746;SHT31;66104;45.456;11.064;2023-04-06T07:20:46;9.82;38.03
68746;SHT31;66104;45.456;11.064;2023-04-06T07:23:18;9.96;38.45
68746;SHT31;66104;45.456;11.064;2023-04-06T07:25:50;10.10;39.12
68746;SHT31;66104;45.456;11.064;2023-04-06T07:28:25;10.22;38.78
68746;SHT31;66104;45.456;11.064;2023-04-06T07:31:00;10.32;38.45
68746;SHT31;66104;45.456;11.064;2023-04-06T07:33:35;10.45;37.96
68746;SHT31;66104;45.456;11.064;2023-04-06T07:36:09;10.57;37.68
68746;SHT31;66104;45.456;11.064;2023-04-06T07:38:41;10.67;37.35
68746;SHT31;66104;45.456;11.064;2023-04-06T07:41:15;10.78;37.13
68746;SHT31;66104;45.456;11.064;2023-04-06T07:43:48;10.86;36.20
68746;SHT31;66104;45.456;11.064;2023-04-06T07:46:22;10.91;36.03
68746;SHT31;66104;45.456;11.064;2023-04-06T07:48:55;10.99;35.95
68746;SHT31;66104;45.456;11.064;2023-04-06T07:51:31;11.07;35.55
68746;SHT31;66104;45.456;11.064;2023-04-06T07:54:08;11.10;35.24
68746;SHT31;66104;45.456;11.064;2023-04-06T07:56:42;11.14;35.22
68746;SHT31;66104;45.456;11.064;2023-04-06T07:59:15;11.19;35.07
68746;SHT31;66104;45.456;11.064;2023-04-06T08:01:50;11.26;34.98
68746;SHT31;66104;45.456;11.064;2023-04-06T08:04:22;11.30;34.95
68746;SHT31;66104;45.456;11.064;2023-04-06T08:06:56;11.37;35.34
68746;SHT31;66104;45.456;11.064;2023-04-06T08:09:30;11.44;35.04
68746;SHT31;66104;45.456;11.064;2023-04-06T08:12:03;11.47;34.19
68746;SHT31;66104;45.456;11.064;2023-04-06T08:14:38;11.50;34.10
68746;SHT31;66104;45.456;11.064;2023-04-06T08:17:12;11.54;34.26
68746;SHT31;66104;45.456;11.064;2023-04-06T08:19:45;11.57;34.36
68746;SHT31;66104;45.456;11.064;2023-04-06T08:22:19;11.61;33.63
68746;SHT31;66104;45.456;11.064;2023-04-06T08:24:53;11.70;33.05
68746;SHT31;66104;45.456;11.064;2023-04-06T08:27:26;11.75;32.76
68746;SHT31;66104;45.456;11.064;2023-04-06T08:30:00;11.81;32.84
68746;SHT31;66104;45.456;11.064;2023-04-06T08:32:37;11.84;33.17
68746;SHT31;66104;45.456;11.064;2023-04-06T08:35:11;11.89;33.15
68746;SHT31;66104;45.456;11.064;2023-04-06T08:37:46;11.97;32.24
68746;SHT31;66104;45.456;11.064;2023-04-06T08:40:19;12.03;32.31
68746;SHT31;66104;45.456;11.064;2023-04-06T08:42:54;12.09;32.16
68746;SHT31;66104;45.456;11.064;2023-04-06T08:45:29;12.16;32.50
68746;SHT31;66104;45.456;11.064;2023-04-06T08:48:03;12.23;32.11
68746;SHT31;66104;45.456;11.064;2023-04-06T08:50:37;12.28;32.14
68746;SHT31;66104;45.456;11.064;2023-04-06T08:53:11;12.35;32.35
68746;SHT31;66104;45.456;11.064;2023-04-06T08:55:50;12.38;31.42
68746;SHT31;66104;45.456;11.064;2023-04-06T08:58:25;12.41;31.48
68746;SHT31;66104;45.456;11.064;2023-04-06T09:01:07;12.46;31.66
68746;SHT31;66104;45.456;11.064;2023-04-06T09:03:45;12.51;31.50
68746;SHT31;66104;45.456;11.064;2023-04-06T09:06:21;12.56;31.44
68746;SHT31;66104;45.456;11.064;2023-04-06T09:08:56;12.58;31.37
68746;SHT31;66104;45.456;11.064;2023-04-06T09:11:29;12.61;30.85
68746;SHT31;66104;45.456;11.064;2023-04-06T09:14:34;12.64;31.29
68746;SHT31;66104;45.456;11.064;2023-04-06T09:17:07;12.65;31.51
68746;SHT31;66104;45.456;11.064;2023-04-06T09:19:52;12.69;31.52
68746;SHT31;66104;45.456;11.064;2023-04-06T09:22:25;12.75;31.87
68746;SHT31;66104;45.456;11.064;2023-04-06T09:25:08;12.80;31.80
68746;SHT31;66104;45.456;11.064;2023-04-06T09:28:00;12.87;31.43
68746;SHT31;66104;45.456;11.064;2023-04-06T09:30:35;12.89;31.03
68746;SHT31;66104;45.456;11.064;2023-04-06T09:33:22;12.91;31.06
68746;SHT31;66104;45.456;11.064;2023-04-06T09:35:55;12.94;31.43
68746;SHT31;66104;45.456;11.064;2023-04-06T09:38:29;12.98;31.13
68746;SHT31;66104;45.456;11.064;2023-04-06T09:41:03;13.02;31.31
68746;SHT31;66104;45.456;11.064;2023-04-06T09:43:37;13.06;31.05
68746;SHT31;66104;45.456;11.064;2023-04-06T09:46:12;13.12;30.86
68746;SHT31;66104;45.456;11.064;2023-04-06T09:48:49;13.11;30.30
68746;SHT31;66104;45.456;11.064;2023-04-06T09:51:23;13.13;30.76
68746;SHT31;66104;45.456;11.064;2023-04-06T09:54:07;13.20;30.86
68746;SHT31;66104;45.456;11.064;2023-04-06T09:56:46;13.27;31.09
68746;SHT31;66104;45.456;11.064;2023-04-06T09:59:26;13.34;31.21
68746;SHT31;66104;45.456;11.064;2023-04-06T10:02:18;13.42;30.48
68746;SHT31;66104;45.456;11.064;2023-04-06T10:05:07;13.48;30.51
68746;SHT31;66104;45.456;11.064;2023-04-06T10:07:53;13.53;30.83
68746;SHT31;66104;45.456;11.064;2023-04-06T10:10:31;13.60;30.69
68746;SHT31;66104;45.456;11.064;2023-04-06T10:13:05;13.66;30.91
68746;SHT31;66104;45.456;11.064;2023-04-06T10:15:41;13.69;30.65
68746;SHT31;66104;45.456;11.064;2023-04-06T10:18:16;13.77;30.13
68746;SHT31;66104;45.456;11.064;2023-04-06T10:20:51;13.84;29.84
68746;SHT31;66104;45.456;11.064;2023-04-06T10:23:37;13.89;29.56
68746;SHT31;66104;45.456;11.064;2023-04-06T10:26:17;13.93;29.85
68746;SHT31;66104;45.456;11.064;2023-04-06T10:28:54;13.98;29.82
68746;SHT31;66104;45.456;11.064;2023-04-06T10:31:39;14.06;29.78
68746;SHT31;66104;45.456;11.064;2023-04-06T10:34:13;14.15;29.75
68746;SHT31;66104;45.456;11.064;2023-04-06T10:36:47;14.23;29.67
68746;SHT31;66104;45.456;11.064;2023-04-06T10:39:25;14.31;29.45
68746;SHT31;66104;45.456;11.064;2023-04-06T10:42:05;14.39;29.53
68746;SHT31;66104;45.456;11.064;2023-04-06T10:44:43;14.45;29.39
68746;SHT31;66104;45.456;11.064;2023-04-06T10:47:21;14.53;29.34
68746;SHT31;66104;45.456;11.064;2023-04-06T10:49:55;14.59;28.96
68746;SHT31;66104;45.456;11.064;2023-04-06T10:52:28;14.64;28.99
68746;SHT31;66104;45.456;11.064;2023-04-06T10:55:02;14.69;29.08
68746;SHT31;66104;45.456;11.064;2023-04-06T10:57:39;14.73;29.10
68746;SHT31;66104;45.456;11.064;2023-04-06T11:00:16;14.80;29.36
68746;SHT31;66104;45.456;11.064;2023-04-06T11:03:02;14.87;29.50
68746;SHT31;66104;45.456;11.064;2023-04-06T11:05:36;14.94;29.30
68746;SHT31;66104;45.456;11.064;2023-04-06T11:08:23;14.98;29.50
68746;SHT31;66104;45.456;11.064;2023-04-06T11:11:07;15.06;29.32
68746;SHT31;66104;45.456;11.064;2023-04-06T11:13:44;15.10;29.32
68746;SHT31;66104;45.456;11.064;2023-04-06T11:16:20;15.12;29.27
68746;SHT31;66104;45.456;11.064;2023-04-06T11:18:56;15.14;29.01
68746;SHT31;66104;45.456;11.064;2023-04-06T11:21:36;15.15;28.98
68746;SHT31;66104;45.456;11.064;2023-04-06T11:24:12;15.14;28.73
68746;SHT31;66104;45.456;11.064;2023-04-06T11:26:47;15.10;28.63
68746;SHT31;66104;45.456;11.064;2023-04-06T11:29:24;15.06;28.71
68746;SHT31;66104;45.456;11.064;2023-04-06T11:32:00;15.03;28.97
68746;SHT31;66104;45.456;11.064;2023-04-06T11:34:36;15.07;29.47
68746;SHT31;66104;45.456;11.064;2023-04-06T11:37:10;15.18;29.54
68746;SHT31;66104;45.456;11.064;2023-04-06T11:39:46;15.29;31.19
68746;SHT31;66104;45.456;11.064;2023-04-06T11:42:25;15.35;31.13
68746;SHT31;66104;45.456;11.064;2023-04-06T11:44:59;15.40;32.33
68746;SHT31;66104;45.456;11.064;2023-04-06T11:47:37;15.45;32.24
68746;SHT31;66104;45.456;11.064;2023-04-06T11:50:13;15.50;31.49
68746;SHT31;66104;45.456;11.064;2023-04-06T11:52:48;15.53;31.00
68746;SHT31;66104;45.456;11.064;2023-04-06T11:55:36;15.57;31.07
68746;SHT31;66104;45.456;11.064;2023-04-06T11:58:13;15.56;30.87
68746;SHT31;66104;45.456;11.064;2023-04-06T12:00:47;15.57;30.74
68746;SHT31;66104;45.456;11.064;2023-04-06T12:03:21;15.60;30.55
68746;SHT31;66104;45.456;11.064;2023-04-06T12:05:55;15.64;30.69
68746;SHT31;66104;45.456;11.064;2023-04-06T12:08:29;15.70;30.68
68746;SHT31;66104;45.456;11.064;2023-04-06T12:11:02;15.74;30.29
68746;SHT31;66104;45.456;11.064;2023-04-06T12:13:36;15.75;30.01
68746;SHT31;66104;45.456;11.064;2023-04-06T12:16:10;15.75;29.99
68746;SHT31;66104;45.456;11.064;2023-04-06T12:18:43;15.78;29.89
68746;SHT31;66104;45.456;11.064;2023-04-06T12:21:16;15.81;29.52
68746;SHT31;66104;45.456;11.064;2023-04-06T12:23:49;15.83;29.51
68746;SHT31;66104;45.456;11.064;2023-04-06T12:26:24;15.87;29.66
68746;SHT31;66104;45.456;11.064;2023-04-06T12:28:57;15.92;29.39
68746;SHT31;66104;45.456;11.064;2023-04-06T12:31:35;15.95;29.21
68746;SHT31;66104;45.456;11.064;2023-04-06T12:34:08;15.95;28.93
68746;SHT31;66104;45.456;11.064;2023-04-06T12:36:41;15.98;29.22
68746;SHT31;66104;45.456;11.064;2023-04-06T12:39:15;16.03;29.01
68746;SHT31;66104;45.456;11.064;2023-04-06T12:41:50;16.06;28.76
68746;SHT31;66104;45.456;11.064;2023-04-06T12:44:25;16.09;28.50
68746;SHT31;66104;45.456;11.064;2023-04-06T12:47:00;16.12;28.72
68746;SHT31;66104;45.456;11.064;2023-04-06T12:49:35;16.15;28.32
68746;SHT31;66104;45.456;11.064;2023-04-06T12:52:07;16.19;28.37
68746;SHT31;66104;45.456;11.064;2023-04-06T12:54:43;16.23;28.66
68746;SHT31;66104;45.456;11.064;2023-04-06T12:57:18;16.28;28.59
68746;SHT31;66104;45.456;11.064;2023-04-06T12:59:52;16.31;28.27
68746;SHT31;66104;45.456;11.064;2023-04-06T13:02:25;16.35;28.34
68746;SHT31;66104;45.456;11.064;2023-04-06T13:05:01;16.39;28.35
68746;SHT31;66104;45.456;11.064;2023-04-06T13:07:37;16.35;27.57
68746;SHT31;66104;45.456;11.064;2023-04-06T13:10:11;16.31;27.86
68746;SHT31;66104;45.456;11.064;2023-04-06T13:12:44;16.33;28.23
68746;SHT31;66104;45.456;11.064;2023-04-06T13:15:18;16.32;27.45
68746;SHT31;66104;45.456;11.064;2023-04-06T13:17:52;16.24;27.55
68746;SHT31;66104;45.456;11.064;2023-04-06T13:20:26;16.25;28.01
68746;SHT31;66104;45.456;11.064;2023-04-06T13:22:59;16.31;28.26
68746;SHT31;66104;45.456;11.064;2023-04-06T13:25:32;16.35;28.44
68746;SHT31;66104;45.456;11.064;2023-04-06T13:28:05;16.40;28.58
68746;SHT31;66104;45.456;11.064;2023-04-06T13:30:38;16.47;28.73
68746;SHT31;66104;45.456;11.064;2023-04-06T13:33:11;16.55;28.66
68746;SHT31;66104;45.456;11.064;2023-04-06T13:35:45;16.57;27.94
68746;SHT31;66104;45.456;11.064;2023-04-06T13:38:19;16.61;28.04
68746;SHT31;66104;45.456;11.064;2023-04-06T13:40:54;16.69;28.41
68746;SHT31;66104;45.456;11.064;2023-04-06T13:43:27;16.74;27.95
68746;SHT31;66104;45.456;11.064;2023-04-06T13:46:01;16.75;28.02
68746;SHT31;66104;45.456;11.064;2023-04-06T13:49:01;16.76;27.88
68746;SHT31;66104;45.456;11.064;2023-04-06T13:51:35;16.78;27.88
68746;SHT31;66104;45.456;11.064;2023-04-06T13:54:08;16.81;27.57
68746;SHT31;66104;45.456;11.064;2023-04-06T13:56:41;16.81;27.41
68746;SHT31;66104;45.456;11.064;2023-04-06T13:59:15;16.82;27.55
68746;SHT31;66104;45.456;11.064;2023-04-06T14:01:48;16.84;27.79
68746;SHT31;66104;45.456;11.064;2023-04-06T14:04:22;16.83;27.56
68746;SHT31;66104;45.456;11.064;2023-04-06T14:06:56;16.83;27.28
68746;SHT31;66104;45.456;11.064;2023-04-06T14:09:30;16.83;27.61
68746;SHT31;66104;45.456;11.064;2023-04-06T14:12:04;16.85;27.94
68746;SHT31;66104;45.456;11.064;2023-04-06T14:14:42;16.90;27.73
68746;SHT31;66104;45.456;11.064;2023-04-06T14:17:16;16.94;27.68
68746;SHT31;66104;45.456;11.064;2023-04-06T14:19:49;16.98;27.50
68746;SHT31;66104;45.456;11.064;2023-04-06T14:22:22;17.00;27.29
68746;SHT31;66104;45.456;11.064;2023-04-06T14:24:57;16.94;27.47
68746;SHT31;66104;45.456;11.064;2023-04-06T14:27:31;16.89;27.31
68746;SHT31;66104;45.456;11.064;2023-04-06T14:30:07;16.87;27.58
68746;SHT31;66104;45.456;11.064;2023-04-06T14:32:45;16.87;27.60
68746;SHT31;66104;45.456;11.064;2023-04-06T14:35:22;16.84;27.66
68746;SHT31;66104;45.456;11.064;2023-04-06T14:37:55;16.82;27.55
68746;SHT31;66104;45.456;11.064;2023-04-06T14:40:29;16.76;27.16
68746;SHT31;66104;45.456;11.064;2023-04-06T14:43:05;16.73;27.28
68746;SHT31;66104;45.456;11.064;2023-04-06T14:45:39;16.73;27.45
68746;SHT31;66104;45.456;11.064;2023-04-06T14:48:12;16.75;27.46
68746;SHT31;66104;45.456;11.064;2023-04-06T14:50:52;16.77;27.55
68746;SHT31;66104;45.456;11.064;2023-04-06T14:53:25;16.78;27.54
68746;SHT31;66104;45.456;11.064;2023-04-06T14:55:58;16.75;27.44
68746;SHT31;66104;45.456;11.064;2023-04-06T14:58:31;16.65;27.17
68746;SHT31;66104;45.456;11.064;2023-04-06T15:01:04;16.61;27.48
68746;SHT31;66104;45.456;11.064;2023-04-06T15:03:37;16.59;27.46
68746;SHT31;66104;45.456;11.064;2023-04-06T15:06:12;16.59;27.75
68746;SHT31;66104;45.456;11.064;2023-04-06T15:08:48;16.60;27.85
68746;SHT31;66104;45.456;11.064;2023-04-06T15:11:22;16.64;27.83
68746;SHT31;66104;45.456;11.064;2023-04-06T15:13:54;16.63;27.63
68746;SHT31;66104;45.456;11.064;2023-04-06T15:16:29;16.64;27.63
68746;SHT31;66104;45.456;11.064;2023-04-06T15:19:01;16.64;28.00
68746;SHT31;66104;45.456;11.064;2023-04-06T15:21:33;16.65;28.54
68746;SHT31;66104;45.456;11.064;2023-04-06T15:24:06;16.71;28.49
68746;SHT31;66104;45.456;11.064;2023-04-06T15:26:40;16.73;28.55
68746;SHT31;66104;45.456;11.064;2023-04-06T15:29:13;16.76;27.87
68746;SHT31;66104;45.456;11.064;2023-04-06T15:31:46;16.73;27.91
68746;SHT31;66104;45.456;11.064;2023-04-06T15:34:19;16.74;27.70
68746;SHT31;66104;45.456;11.064;2023-04-06T15:36:51;16.74;27.69
68746;SHT31;66104;45.456;11.064;2023-04-06T15:39:26;16.73;27.72
68746;SHT31;66104;45.456;11.064;2023-04-06T15:41:58;16.70;27.76
68746;SHT31;66104;45.456;11.064;2023-04-06T15:44:31;16.64;27.75
68746;SHT31;66104;45.456;11.064;2023-04-06T15:47:06;16.61;27.68
68746;SHT31;66104;45.456;11.064;2023-04-06T15:49:39;16.58;27.67
68746;SHT31;66104;45.456;11.064;2023-04-06T15:52:12;16.55;27.63
68746;SHT31;66104;45.456;11.064;2023-04-06T15:54:44;16.51;27.96
68746;SHT31;66104;45.456;11.064;2023-04-06T15:57:17;16.45;27.94
68746;SHT31;66104;45.456;11.064;2023-04-06T15:59:50;16.39;27.94
68746;SHT31;66104;45.456;11.064;2023-04-06T16:02:23;16.34;28.05
68746;SHT31;66104;45.456;11.064;2023-04-06T16:04:57;16.30;28.07
68746;SHT31;66104;45.456;11.064;2023-04-06T16:07:30;16.24;28.17
68746;SHT31;66104;45.456;11.064;2023-04-06T16:10:05;16.19;28.30
68746;SHT31;66104;45.456;11.064;2023-04-06T16:12:41;16.16;28.13
68746;SHT31;66104;45.456;11.064;2023-04-06T16:15:14;16.10;28.05
68746;SHT31;66104;45.456;11.064;2023-04-06T16:17:47;16.05;28.04